createdAt,value
2023-09-03T00:00:39.393Z,14.50
2023-09-03T00:03:07.068Z,14.47
2023-09-03T00:05:34.422Z,14.44
2023-09-03T00:08:01.647Z,14.41
2023-09-03T00:10:29.092Z,14.41
2023-09-03T00:12:55.791Z,14.39
2023-09-03T00:15:26.700Z,14.32
2023-09-03T00:17:53.471Z,14.27
2023-09-03T00:20:20.407Z,14.30
2023-09-03T00:22:47.298Z,14.11
2023-09-03T00:25:14.099Z,14.12
2023-09-03T00:27:40.805Z,14.16
2023-09-03T00:30:08.280Z,13.78
2023-09-03T00:32:34.964Z,14.14
2023-09-03T00:35:01.688Z,14.10
2023-09-03T00:37:28.350Z,14.00
2023-09-03T00:39:55.125Z,13.93
2023-09-03T00:42:21.696Z,13.97
2023-09-03T00:44:48.908Z,14.09
2023-09-03T00:47:18.484Z,13.89
2023-09-03T00:49:45.416Z,13.92
2023-09-03T00:52:12.669Z,13.82
2023-09-03T00:54:39.854Z,14.02
2023-09-03T00:57:06.564Z,13.95
2023-09-03T00:59:34.647Z,13.86
2023-09-03T01:02:01.421Z,13.89
2023-09-03T01:04:28.212Z,13.98
2023-09-03T01:06:55.387Z,13.96
2023-09-03T01:09:22.143Z,13.99
2023-09-03T01:11:59.048Z,13.94
2023-09-03T01:14:33.297Z,13.61
2023-09-03T01:17:33.014Z,13.98
2023-09-03T01:20:13.316Z,13.92
2023-09-03T01:23:21.093Z,13.95
2023-09-03T01:26:13.087Z,13.92
2023-09-03T01:28:42.070Z,13.90
2023-09-03T01:31:17.955Z,13.83
2023-09-03T01:33:46.974Z,13.83
2023-09-03T01:36:15.038Z,13.88
2023-09-03T01:38:42.098Z,13.84
2023-09-03T01:41:09.347Z,13.68
2023-09-03T01:43:36.106Z,13.76
2023-09-03T01:46:08.899Z,13.85
2023-09-03T01:49:13.348Z,13.90
2023-09-03T01:51:57.189Z,13.90
2023-09-03T01:54:30.002Z,13.89
2023-09-03T01:57:05.743Z,13.77
2023-09-03T01:59:42.348Z,13.88
2023-09-03T02:02:10.790Z,13.84
2023-09-03T02:04:37.516Z,13.86
2023-09-03T02:07:04.359Z,13.85
2023-09-03T02:09:31.275Z,13.69
2023-09-03T02:11:58.660Z,13.57
2023-09-03T02:14:25.428Z,13.77
2023-09-03T02:16:52.418Z,13.74
2023-09-03T02:19:19.066Z,13.77
2023-09-03T02:21:46.302Z,13.75
2023-09-03T02:24:13.181Z,13.69
2023-09-03T02:26:44.957Z,13.77
2023-09-03T02:29:12.496Z,13.72
2023-09-03T02:31:39.525Z,13.73
2023-09-03T02:34:07.394Z,13.72
2023-09-03T02:36:35.503Z,13.65
2023-09-03T02:39:04.224Z,13.48
2023-09-03T02:41:31.173Z,13.62
2023-09-03T02:44:02.465Z,13.55
2023-09-03T02:46:29.485Z,13.45
2023-09-03T02:48:56.171Z,13.44
2023-09-03T02:51:22.830Z,13.36
2023-09-03T02:53:52.436Z,13.44
2023-09-03T02:56:19.320Z,13.42
2023-09-03T02:58:48.091Z,13.43
2023-09-03T03:01:16.386Z,13.41
2023-09-03T03:03:43.040Z,13.38
2023-09-03T03:06:10.409Z,13.30
2023-09-03T03:08:37.274Z,13.26
2023-09-03T03:11:12.164Z,13.31
2023-09-03T03:13:40.913Z,13.27
2023-09-03T03:16:13.005Z,13.27
2023-09-03T03:18:41.480Z,13.26
2023-09-03T03:21:11.937Z,13.23
2023-09-03T03:23:39.543Z,13.21
2023-09-03T03:26:06.401Z,12.84
2023-09-03T03:28:34.742Z,13.12
2023-09-03T03:31:12.234Z,12.83
2023-09-03T03:33:40.524Z,13.04
2023-09-03T03:36:08.306Z,12.96
2023-09-03T03:38:35.406Z,12.92
2023-09-03T03:41:10.267Z,13.06
2023-09-03T03:43:44.979Z,13.01
2023-09-03T03:46:15.250Z,13.00
2023-09-03T03:48:42.732Z,13.05
2023-09-03T03:51:09.734Z,12.98
2023-09-03T03:53:36.972Z,12.98
2023-09-03T03:56:06.052Z,13.03
2023-09-03T03:58:37.814Z,12.84
2023-09-03T04:01:18.541Z,12.89
2023-09-03T04:03:47.054Z,12.97
2023-09-03T04:06:14.251Z,12.97
2023-09-03T04:08:41.510Z,12.89
2023-09-03T04:11:10.051Z,12.98
2023-09-03T04:13:38.015Z,12.97
2023-09-03T04:16:09.104Z,12.94
2023-09-03T04:18:35.911Z,12.96
2023-09-03T04:21:02.614Z,12.96
2023-09-03T04:23:29.787Z,12.77
2023-09-03T04:25:58.446Z,12.93
2023-09-03T04:28:25.839Z,12.96
2023-09-03T04:31:05.662Z,12.94
2023-09-03T04:33:32.492Z,12.89
2023-09-03T04:36:00.990Z,12.80
2023-09-03T04:38:28.607Z,12.91
2023-09-03T04:40:56.488Z,12.91
2023-09-03T04:43:24.360Z,12.69
2023-09-03T04:45:53.024Z,12.85
2023-09-03T04:48:21.720Z,12.84
2023-09-03T04:50:49.110Z,12.84
2023-09-03T04:53:15.908Z,12.80
2023-09-03T04:55:43.101Z,12.86
2023-09-03T04:58:10.092Z,12.80
2023-09-03T05:00:37.565Z,12.80
2023-09-03T05:03:06.290Z,12.70
2023-09-03T05:05:40.966Z,12.89
2023-09-03T05:08:09.660Z,12.89
2023-09-03T05:10:36.909Z,12.70
2023-09-03T05:13:08.272Z,12.85
2023-09-03T05:15:35.479Z,12.92
2023-09-03T05:18:02.833Z,13.00
2023-09-03T05:20:30.074Z,13.02
2023-09-03T05:22:56.788Z,12.98
2023-09-03T05:25:23.556Z,13.19
2023-09-03T05:27:50.232Z,13.24
2023-09-03T05:30:16.991Z,13.25
2023-09-03T05:32:43.850Z,13.26
2023-09-03T05:35:11.200Z,13.42
2023-09-03T05:37:37.910Z,13.44
2023-09-03T05:40:05.999Z,13.52
2023-09-03T05:42:33.168Z,13.62
2023-09-03T05:45:00.365Z,13.88
2023-09-03T05:47:27.395Z,13.99
2023-09-03T05:49:56.149Z,14.06
2023-09-03T05:52:22.795Z,14.20
2023-09-03T05:54:49.579Z,14.25
2023-09-03T05:57:16.298Z,14.21
2023-09-03T05:59:43.008Z,14.52
2023-09-03T06:02:09.679Z,14.63
2023-09-03T06:04:37.154Z,14.67
2023-09-03T06:07:05.558Z,14.83
2023-09-03T06:09:32.377Z,14.93
2023-09-03T06:11:59.192Z,15.19
2023-09-03T06:14:25.840Z,15.18
2023-09-03T06:16:53.078Z,15.30
2023-09-03T06:19:20.366Z,15.49
2023-09-03T06:21:46.964Z,15.62
2023-09-03T06:24:13.662Z,15.71
2023-09-03T06:26:40.407Z,15.83
2023-09-03T06:29:07.110Z,15.90
2023-09-03T06:31:33.885Z,16.09
2023-09-03T06:34:00.671Z,16.10
2023-09-03T06:36:27.371Z,16.34
2023-09-03T06:38:53.993Z,16.53
2023-09-03T06:41:20.716Z,16.63
2023-09-03T06:43:47.649Z,16.85
2023-09-03T06:46:14.494Z,16.89
2023-09-03T06:48:41.268Z,17.12
2023-09-03T06:51:08.114Z,17.46
2023-09-03T06:53:34.801Z,17.71
2023-09-03T06:56:01.609Z,18.19
2023-09-03T06:58:28.415Z,18.67
2023-09-03T07:00:56.609Z,19.49
2023-09-03T07:03:23.696Z,20.30
2023-09-03T07:05:50.484Z,21.05
2023-09-03T07:08:17.343Z,21.89
2023-09-03T07:10:44.451Z,22.72
2023-09-03T07:13:12.167Z,23.48
2023-09-03T07:15:38.951Z,24.06
2023-09-03T07:18:06.077Z,24.55
2023-09-03T07:20:32.902Z,25.10
2023-09-03T07:22:59.578Z,25.58
2023-09-03T07:25:26.526Z,26.19
2023-09-03T07:27:53.306Z,26.65
2023-09-03T07:30:20.034Z,27.17
2023-09-03T07:32:46.801Z,27.53
2023-09-03T07:35:14.082Z,27.78
2023-09-03T07:37:40.783Z,27.87
2023-09-03T07:40:09.554Z,27.94
2023-09-03T07:42:36.376Z,28.28
2023-09-03T07:45:03.626Z,28.07
2023-09-03T07:47:30.299Z,27.56
2023-09-03T07:49:57.132Z,27.28
2023-09-03T07:52:23.837Z,26.83
2023-09-03T07:54:50.665Z,26.51
2023-09-03T07:57:17.871Z,26.22
2023-09-03T07:59:44.581Z,26.35
2023-09-03T08:02:11.490Z,26.52
2023-09-03T08:04:38.260Z,26.68
2023-09-03T08:07:05.104Z,27.13
2023-09-03T08:09:32.276Z,27.45
2023-09-03T08:11:58.945Z,27.75
2023-09-03T08:14:25.803Z,27.67
2023-09-03T08:16:52.641Z,27.66
2023-09-03T08:19:19.387Z,27.53
2023-09-03T08:21:46.448Z,27.22
2023-09-03T08:24:13.291Z,26.74
2023-09-03T08:26:40.167Z,26.35
2023-09-03T08:29:07.080Z,25.95
2023-09-03T08:31:34.263Z,25.42
2023-09-03T08:34:01.036Z,25.01
2023-09-03T08:36:27.649Z,24.67
2023-09-03T08:38:54.712Z,24.21
2023-09-03T08:41:23.933Z,23.89
2023-09-03T08:43:58.747Z,23.39
2023-09-03T08:46:30.004Z,23.09
2023-09-03T08:48:57.580Z,22.76
2023-09-03T08:51:25.099Z,22.56
2023-09-03T08:53:55.084Z,22.46
2023-09-03T08:56:21.760Z,22.28
2023-09-03T08:58:48.478Z,21.96
2023-09-03T09:01:17.519Z,22.10
2023-09-03T09:03:45.881Z,21.57
2023-09-03T09:06:13.680Z,22.02
2023-09-03T09:08:42.020Z,21.94
2023-09-03T09:11:15.086Z,21.74
2023-09-03T09:13:48.573Z,21.66
2023-09-03T09:16:15.357Z,21.65
2023-09-03T09:18:42.336Z,21.42
2023-09-03T09:21:09.340Z,21.87
2023-09-03T09:23:36.220Z,21.90
2023-09-03T09:26:15.781Z,21.93
2023-09-03T09:28:58.370Z,21.93
2023-09-03T09:31:32.626Z,21.90
2023-09-03T09:34:01.396Z,21.70
2023-09-03T09:36:28.542Z,21.74
2023-09-03T09:39:06.477Z,21.74
2023-09-03T09:41:38.616Z,21.77
2023-09-03T09:44:10.969Z,21.70
2023-09-03T09:46:37.810Z,21.70
2023-09-03T09:49:04.570Z,21.39
2023-09-03T09:51:32.432Z,21.75
2023-09-03T09:54:04.265Z,21.71
2023-09-03T09:56:32.476Z,21.72
2023-09-03T09:58:59.714Z,21.63
2023-09-03T10:01:28.578Z,21.68
2023-09-03T10:03:56.104Z,21.71
2023-09-03T10:06:24.419Z,21.67
2023-09-03T10:08:53.059Z,21.64
2023-09-03T10:11:20.967Z,21.79
2023-09-03T10:13:51.017Z,21.41
2023-09-03T10:16:21.321Z,21.57
2023-09-03T10:18:50.368Z,21.67
2023-09-03T10:21:50.937Z,21.65
2023-09-03T10:24:17.909Z,21.57
2023-09-03T10:26:49.595Z,21.75
2023-09-03T10:29:20.677Z,21.52
2023-09-03T10:31:49.734Z,21.73
2023-09-03T10:34:16.927Z,21.83
2023-09-03T10:37:03.193Z,21.95
2023-09-03T10:39:30.131Z,21.90
2023-09-03T10:42:15.750Z,21.98
2023-09-03T10:44:43.658Z,22.05
2023-09-03T10:47:12.811Z,21.96
2023-09-03T10:49:44.394Z,22.23
2023-09-03T10:52:29.808Z,22.26
2023-09-03T10:55:19.495Z,22.28
2023-09-03T10:58:11.457Z,22.29
2023-09-03T11:00:38.619Z,22.25
2023-09-03T11:03:19.750Z,22.28
2023-09-03T11:06:24.885Z,22.22
2023-09-03T11:09:11.824Z,22.19
2023-09-03T11:11:41.761Z,22.23
2023-09-03T11:14:08.979Z,22.35
2023-09-03T11:16:38.022Z,22.33
2023-09-03T11:19:08.640Z,22.46
2023-09-03T11:21:37.437Z,22.34
2023-09-03T11:24:05.229Z,22.55
2023-09-03T11:26:36.124Z,22.59
2023-09-03T11:29:03.792Z,22.70
2023-09-03T11:31:31.266Z,22.74
2023-09-03T11:33:58.185Z,22.63
2023-09-03T11:36:27.965Z,22.63
2023-09-03T11:38:56.654Z,22.74
2023-09-03T11:41:23.730Z,22.73
2023-09-03T11:43:50.604Z,22.66
2023-09-03T11:46:19.248Z,22.89
2023-09-03T11:48:52.111Z,22.64
2023-09-03T11:51:29.874Z,22.80
2023-09-03T11:53:57.717Z,22.84
2023-09-03T11:56:27.198Z,22.78
2023-09-03T11:59:06.131Z,22.68
2023-09-03T12:01:33.357Z,22.57
2023-09-03T12:04:00.182Z,22.55
2023-09-03T12:06:27.950Z,22.57
2023-09-03T12:08:54.615Z,22.49
2023-09-03T12:11:29.625Z,22.73
2023-09-03T12:13:56.365Z,22.60
2023-09-03T12:16:25.258Z,22.55
2023-09-03T12:18:59.753Z,22.33
2023-09-03T12:21:37.128Z,22.64
2023-09-03T12:24:06.326Z,22.77
2023-09-03T12:26:36.227Z,22.85
2023-09-03T12:29:20.371Z,22.91
2023-09-03T12:31:47.041Z,22.88
2023-09-03T12:34:15.352Z,22.94
2023-09-03T12:37:02.860Z,22.96
2023-09-03T12:39:43.184Z,22.85
2023-09-03T12:42:11.451Z,23.01
2023-09-03T12:44:42.394Z,22.98
2023-09-03T12:47:10.411Z,22.98
2023-09-03T12:49:37.132Z,23.16
2023-09-03T12:52:04.007Z,23.25
2023-09-03T12:54:32.797Z,23.30
2023-09-03T12:57:01.761Z,23.46
2023-09-03T12:59:28.640Z,23.62
2023-09-03T13:01:55.484Z,23.73
2023-09-03T13:04:22.408Z,23.80
2023-09-03T13:06:49.189Z,23.78
2023-09-03T13:09:15.850Z,23.59
2023-09-03T13:11:42.742Z,23.64
2023-09-03T13:14:09.464Z,23.47
2023-09-03T13:16:37.347Z,23.60
2023-09-03T13:19:04.265Z,23.35
2023-09-03T13:21:36.886Z,23.49
2023-09-03T13:24:04.518Z,23.44
2023-09-03T13:26:31.404Z,23.38
2023-09-03T13:28:58.333Z,23.33
2023-09-03T13:31:27.167Z,23.46
2023-09-03T13:33:54.288Z,23.45
2023-09-03T13:36:21.846Z,23.38
2023-09-03T13:38:50.948Z,23.38
2023-09-03T13:41:17.773Z,23.31
2023-09-03T13:43:58.942Z,23.42
2023-09-03T13:46:27.217Z,23.42
2023-09-03T13:48:54.200Z,23.36
2023-09-03T13:51:22.459Z,23.19
2023-09-03T13:53:53.222Z,23.10
2023-09-03T13:56:20.018Z,23.08
2023-09-03T13:58:46.674Z,23.11
2023-09-03T14:01:13.453Z,23.10
2023-09-03T14:03:40.143Z,22.95
2023-09-03T14:06:08.369Z,23.01
2023-09-03T14:08:35.493Z,23.01
2023-09-03T14:11:02.249Z,23.01
2023-09-03T14:13:29.204Z,22.98
2023-09-03T14:15:57.262Z,23.01
2023-09-03T14:18:25.530Z,23.11
2023-09-03T14:20:57.072Z,23.12
2023-09-03T14:23:25.404Z,23.28
2023-09-03T14:25:53.477Z,23.35
2023-09-03T14:28:21.380Z,23.37
2023-09-03T14:30:50.386Z,23.38
2023-09-03T14:33:18.918Z,23.44
2023-09-03T14:35:48.481Z,23.46
2023-09-03T14:38:16.630Z,23.46
2023-09-03T14:40:50.586Z,23.30
2023-09-03T14:43:17.416Z,23.28
2023-09-03T14:45:44.092Z,23.32
2023-09-03T14:48:10.860Z,22.93
2023-09-03T14:50:37.729Z,23.25
2023-09-03T14:53:04.564Z,23.28
2023-09-03T14:55:31.192Z,23.21
2023-09-03T14:57:57.958Z,23.21
2023-09-03T15:00:24.594Z,23.22
2023-09-03T15:02:51.474Z,23.02
2023-09-03T15:05:18.425Z,23.14
2023-09-03T15:07:45.429Z,23.16
2023-09-03T15:10:12.562Z,23.11
2023-09-03T15:12:39.349Z,23.02
2023-09-03T15:15:06.377Z,23.09
2023-09-03T15:17:33.092Z,22.99
2023-09-03T15:20:00.920Z,22.97
2023-09-03T15:22:27.652Z,22.99
2023-09-03T15:24:54.378Z,22.93
2023-09-03T15:27:21.520Z,22.90
2023-09-03T15:29:49.656Z,22.95
2023-09-03T15:32:17.504Z,22.96
2023-09-03T15:34:45.827Z,23.02
2023-09-03T15:37:14.535Z,22.68
2023-09-03T15:39:42.396Z,22.97
2023-09-03T15:42:11.739Z,23.00
2023-09-03T15:44:40.433Z,23.16
2023-09-03T15:47:08.342Z,22.92
2023-09-03T15:49:37.095Z,23.08
2023-09-03T15:52:09.400Z,23.16
2023-09-03T15:54:39.235Z,23.16
2023-09-03T15:57:07.087Z,23.13
2023-09-03T15:59:35.189Z,23.02
2023-09-03T16:02:03.263Z,23.11
2023-09-03T16:04:31.768Z,23.12
2023-09-03T16:07:00.026Z,23.09
2023-09-03T16:09:27.646Z,23.07
2023-09-03T16:11:54.325Z,23.08
2023-09-03T16:14:21.023Z,23.04
2023-09-03T16:16:47.910Z,22.89
2023-09-03T16:19:14.555Z,22.99
2023-09-03T16:21:41.491Z,22.95
2023-09-03T16:24:08.483Z,22.82
2023-09-03T16:26:35.209Z,22.95
2023-09-03T16:29:01.884Z,22.75
2023-09-03T16:31:28.751Z,22.86
2023-09-03T16:33:55.412Z,22.85
2023-09-03T16:36:22.040Z,22.69
2023-09-03T16:38:48.915Z,22.74
2023-09-03T16:41:15.703Z,22.76
2023-09-03T16:43:43.896Z,22.74
2023-09-03T16:46:11.739Z,22.60
2023-09-03T16:48:38.405Z,22.64
2023-09-03T16:51:05.136Z,22.59
2023-09-03T16:53:31.974Z,22.59
2023-09-03T16:56:01.937Z,22.56
2023-09-03T16:58:28.550Z,22.47
2023-09-03T17:00:56.946Z,22.42
2023-09-03T17:03:26.182Z,22.44
2023-09-03T17:05:53.197Z,22.36
2023-09-03T17:08:20.342Z,22.10
2023-09-03T17:10:47.395Z,22.26
2023-09-03T17:13:14.204Z,22.13
2023-09-03T17:15:41.742Z,21.87
2023-09-03T17:18:09.489Z,22.00
2023-09-03T17:20:42.041Z,21.76
2023-09-03T17:23:09.504Z,21.76
2023-09-03T17:25:36.919Z,21.64
2023-09-03T17:28:03.896Z,21.68
2023-09-03T17:30:30.802Z,21.61
2023-09-03T17:32:57.680Z,21.55
2023-09-03T17:35:24.406Z,21.51
2023-09-03T17:37:51.172Z,21.32
2023-09-03T17:40:20.785Z,21.23
2023-09-03T17:42:47.869Z,21.19
2023-09-03T17:45:15.220Z,21.24
2023-09-03T17:47:43.962Z,21.24
2023-09-03T17:50:10.909Z,21.12
2023-09-03T17:52:37.770Z,21.12
2023-09-03T17:55:04.891Z,21.03
2023-09-03T17:57:34.570Z,21.04
2023-09-03T18:00:01.957Z,20.80
2023-09-03T18:02:28.866Z,20.84
2023-09-03T18:04:56.416Z,20.80
2023-09-03T18:07:23.218Z,20.81
2023-09-03T18:09:49.897Z,20.78
2023-09-03T18:12:16.734Z,20.72
2023-09-03T18:14:43.567Z,20.61
2023-09-03T18:17:11.301Z,20.53
2023-09-03T18:19:38.041Z,20.38
2023-09-03T18:22:05.226Z,19.91
2023-09-03T18:24:33.604Z,20.32
2023-09-03T18:27:00.311Z,20.31
2023-09-03T18:29:27.246Z,20.21
2023-09-03T18:31:54.031Z,20.10
2023-09-03T18:34:20.777Z,20.10
2023-09-03T18:36:48.203Z,19.97
2023-09-03T18:39:14.992Z,19.93
2023-09-03T18:41:41.712Z,19.90
2023-09-03T18:44:08.922Z,19.87
2023-09-03T18:46:35.761Z,19.61
2023-09-03T18:49:02.516Z,19.69
2023-09-03T18:51:29.849Z,19.52
2023-09-03T18:53:57.292Z,19.59
2023-09-03T18:56:24.117Z,19.43
2023-09-03T18:58:50.734Z,19.44
2023-09-03T19:01:20.579Z,19.53
2023-09-03T19:03:50.514Z,19.37
2023-09-03T19:06:18.818Z,19.48
2023-09-03T19:08:45.756Z,19.40
2023-09-03T19:11:12.694Z,19.22
2023-09-03T19:13:40.239Z,19.38
2023-09-03T19:16:07.006Z,19.33
2023-09-03T19:18:35.270Z,19.30
2023-09-03T19:21:02.394Z,18.99
2023-09-03T19:23:29.058Z,19.20
2023-09-03T19:25:55.832Z,19.17
2023-09-03T19:28:22.993Z,19.13
2023-09-03T19:30:52.006Z,19.06
2023-09-03T19:33:20.828Z,19.04
2023-09-03T19:35:57.527Z,18.56
2023-09-03T19:38:32.724Z,18.84
2023-09-03T19:41:01.695Z,18.64
2023-09-03T19:43:28.662Z,18.69
2023-09-03T19:45:57.476Z,18.75
2023-09-03T19:48:26.563Z,18.72
2023-09-03T19:50:56.726Z,18.66
2023-09-03T19:53:23.730Z,18.56
2023-09-03T19:55:50.767Z,18.60
2023-09-03T19:58:18.059Z,18.50
2023-09-03T20:00:45.538Z,18.51
2023-09-03T20:03:13.451Z,18.46
2023-09-03T20:05:42.032Z,18.23
2023-09-03T20:08:09.564Z,18.30
2023-09-03T20:10:40.186Z,18.19
2023-09-03T20:13:09.007Z,18.10
2023-09-03T20:15:38.871Z,18.24
2023-09-03T20:18:06.365Z,18.10
2023-09-03T20:20:36.550Z,18.06
2023-09-03T20:23:03.529Z,18.07
2023-09-03T20:25:30.422Z,17.94
2023-09-03T20:27:57.125Z,17.89
2023-09-03T20:30:23.827Z,17.95
2023-09-03T20:32:50.840Z,17.85
2023-09-03T20:35:20.109Z,17.78
2023-09-03T20:37:47.077Z,17.84
2023-09-03T20:40:13.893Z,17.66
2023-09-03T20:42:40.786Z,17.76
2023-09-03T20:45:08.044Z,17.68
2023-09-03T20:47:34.985Z,17.62
2023-09-03T20:50:02.277Z,17.46
2023-09-03T20:52:29.403Z,17.54
2023-09-03T20:54:56.192Z,17.49
2023-09-03T20:57:22.986Z,17.48
2023-09-03T20:59:49.667Z,17.32
2023-09-03T21:02:16.421Z,17.36
2023-09-03T21:04:43.458Z,17.33
2023-09-03T21:07:10.182Z,17.26
2023-09-03T21:09:37.824Z,17.18
